Fort Myers Airport, FL

7:55 PM EDT on August 28, 2014 (GMT -0400)
Page | Change Station
CLOSE
Current Station
Airport
Location: Fort Myers,
Elevation: 16 ft
Nearby Weather Stations

Elev 16 ft 26.58 °N, 81.86 °W | Updated 10 minutes ago

Light Rain
Light Rain
77 °F
Feels Like 77 °F
N
8
Wind Variable Wind from SSE

Today
High -- | Low -- °F
--% Chance of Precip.
Yesterday
High -- | Low -- °F
Precip. -- in
7:04 AM 7:50 PM
Waxing Crescent, 10% visible
Pressure 29.95 in
Visibility 7.0 miles
Clouds Scattered Clouds 2500 ft
Mostly Cloudy 6000 ft
Overcast 11000 ft
Dew Point 76 °F
Humidity 96%
Rainfall 0.53 in
Snow Depth Not available.
UV 0 out of 12
Pollen 5.00 out of 12
Air Quality Not available.
Flu Activity Not available.
SPECI KFMY 282345Z 15007KT 7SM VCTS -RA SCT025 BKN060 OVC110 25/24 A2995 RMK AO2 LTG DSNT SE AND S AND NW RAB2257E25B39 TSB19E39 P0001 T02500244

More Conditions Fewer Conditions

Pressure 29.95 in
Visibility 7.0 miles
Clouds Scattered Clouds 2500 ft
Mostly Cloudy 6000 ft
Overcast 11000 ft
Dew Point 76 °F
Humidity 96%
Rainfall 0.53 in
Snow Depth Not available.
UV 0 out of 12
Pollen 5.00 out of 12
Air Quality Not available.
Flu Activity Not available.
SPECI KFMY 282345Z 15007KT 7SM VCTS -RA SCT025 BKN060 OVC110 25/24 A2995 RMK AO2 LTG DSNT SE AND S AND NW RAB2257E25B39 TSB19E39 P0001 T02500244

More Conditions Fewer Conditions

10-Day Weather Forecast

Almanac

Astronomy

Aug. 28, 2014 Rise Set
Actual Time 7:04 AM EDT 7:50 PM EDT
Civil Twilight 6:41 AM EDT 8:14 PM EDT
Nautical Twilight 6:13 AM EDT 8:42 PM EDT
Astronomical Twilight 5:45 AM EDT 9:10 PM EDT
Moon 9:36 AM EDT 9:36 PM EDT
Length of Visible Light 13h 33m
Length of Day
12h 46m
Tomorrow will be 1m 28s shorter.
Waxing Crescent, 10% of the Moon is Illuminated
Today
Waxing Crescent
Sep 2
First Quarter
Sep 8
Full
Sep 15
Last Quarter
Sep 24
New

Today's Extremes

State Highs State Lows

Community

WunderPhotos

Upload Photos

1,748,105 photos uploaded!

Nearby

Snow Depth

Station Depth Elevation
No new snow has been reported.

Earthquake Activity

City Distance Mag. Time & Date
No recent earthquake activity has been reported nearby.
Minimum magnitude displayed is 2.5.

Coastal Water Temperatures

Place Temperature
Fort Myers, FL 88.0 °F

Nearby Weather Stations